createdAt,value
2023-03-04T00:00:54.249Z,-0.8
2023-03-04T00:01:54.356Z,-0.79
2023-03-04T00:02:54.407Z,-0.78
2023-03-04T00:03:54.343Z,-0.8
2023-03-04T00:04:54.499Z,-0.79
2023-03-04T00:05:54.349Z,-0.81
2023-03-04T00:06:54.384Z,-0.79
2023-03-04T00:07:54.370Z,-0.8
2023-03-04T00:08:54.448Z,-0.83
2023-03-04T00:09:54.384Z,-0.84
2023-03-04T00:10:54.449Z,-0.83
2023-03-04T00:11:54.495Z,-0.8
2023-03-04T00:12:54.460Z,-0.84
2023-03-04T00:13:55.465Z,-0.85
2023-03-04T00:14:54.525Z,-0.88
2023-03-04T00:15:54.517Z,-0.89
2023-03-04T00:16:54.485Z,-0.88
2023-03-04T00:17:54.570Z,-0.89
2023-03-04T00:18:55.480Z,-0.91
2023-03-04T00:19:54.564Z,-0.94
2023-03-04T00:20:54.629Z,-0.92
2023-03-04T00:21:54.705Z,-0.95
2023-03-04T00:22:54.669Z,-0.95
2023-03-04T00:23:54.650Z,-0.98
2023-03-04T00:24:54.689Z,-0.96
2023-03-04T00:25:54.796Z,-0.93
2023-03-04T00:26:54.691Z,-0.9
2023-03-04T00:27:54.722Z,-0.92
2023-03-04T00:28:54.754Z,-0.94
2023-03-04T00:29:55.394Z,-0.96
2023-03-04T00:30:54.775Z,-0.97
2023-03-04T00:31:54.944Z,-0.95
2023-03-04T00:32:54.802Z,-0.96
2023-03-04T00:33:54.822Z,-0.9
2023-03-04T00:34:54.808Z,-0.93
2023-03-04T00:35:54.961Z,-0.92
2023-03-04T00:36:54.929Z,-0.92
2023-03-04T00:37:54.883Z,-0.85
2023-03-04T00:38:54.858Z,-0.8
2023-03-04T00:39:54.905Z,-0.81
2023-03-04T00:40:54.951Z,-0.83
2023-03-04T00:41:55.178Z,-0.84
2023-03-04T00:42:54.955Z,-0.84
2023-03-04T00:43:54.998Z,-0.86
2023-03-04T00:44:54.971Z,-0.85
2023-03-04T00:45:57.056Z,-0.88
2023-03-04T00:46:55.059Z,-0.88
2023-03-04T00:47:55.054Z,-0.85
2023-03-04T00:48:55.067Z,-0.83
2023-03-04T00:49:55.058Z,-0.84
2023-03-04T00:50:55.122Z,-0.88
2023-03-04T00:51:55.293Z,-0.87
2023-03-04T00:52:55.181Z,-0.91
2023-03-04T00:53:55.151Z,-0.85
2023-03-04T00:54:55.171Z,-0.9
2023-03-04T00:55:55.225Z,-0.89
2023-03-04T00:56:55.560Z,-0.93
2023-03-04T00:57:55.242Z,-0.99
2023-03-04T00:58:59.788Z,-0.92
2023-03-04T00:59:56.430Z,-0.97
2023-03-04T01:00:56.511Z,-0.97
2023-03-04T01:01:56.501Z,-0.97
2023-03-04T01:02:56.563Z,-1.09
2023-03-04T01:03:56.526Z,-1.15
2023-03-04T01:04:56.870Z,-1.12
2023-03-04T01:05:56.575Z,-1.17
2023-03-04T01:06:56.630Z,-1.17
2023-03-04T01:07:56.574Z,-1.1
2023-03-04T01:08:56.665Z,-1.2
2023-03-04T01:09:56.595Z,-1.26
2023-03-04T01:10:56.609Z,-1.28
2023-03-04T01:11:56.721Z,-1.34
2023-03-04T01:12:56.782Z,-1.33
2023-03-04T01:13:56.897Z,-1.37
2023-03-04T01:14:56.701Z,-1.44
2023-03-04T01:15:56.720Z,-1.5
2023-03-04T01:16:56.767Z,-1.42
2023-03-04T01:17:56.924Z,-1.44
2023-03-04T01:18:57.047Z,-1.54
2023-03-04T01:19:56.743Z,-1.58
2023-03-04T01:20:56.716Z,-1.6
2023-03-04T01:21:56.845Z,-1.54
2023-03-04T01:22:56.868Z,-1.63
2023-03-04T01:23:56.796Z,-1.57
2023-03-04T01:24:56.845Z,-1.65
2023-03-04T01:25:56.900Z,-1.58
2023-03-04T01:26:56.886Z,-1.48
2023-03-04T01:27:56.904Z,-1.5
2023-03-04T01:28:56.875Z,-1.6
2023-03-04T01:29:56.935Z,-1.61
2023-03-04T01:30:57.087Z,-1.55
2023-03-04T01:31:57.058Z,-1.53
2023-03-04T01:32:57.263Z,-1.53
2023-03-04T01:33:57.006Z,-1.45
2023-03-04T01:34:57.020Z,-1.47
2023-03-04T01:35:57.319Z,-1.46
2023-03-04T01:36:57.354Z,-1.47
2023-03-04T01:37:57.067Z,-1.43
2023-03-04T01:38:57.064Z,-1.42
2023-03-04T01:39:57.069Z,-1.36
2023-03-04T01:40:57.209Z,-1.37
2023-03-04T01:41:57.292Z,-1.38
2023-03-04T01:42:57.220Z,-1.37
2023-03-04T01:43:59.308Z,-1.37
2023-03-04T01:44:57.154Z,-1.31
2023-03-04T01:45:57.911Z,-1.35
2023-03-04T01:46:57.351Z,-1.32
2023-03-04T01:47:57.202Z,-1.32
2023-03-04T01:48:57.630Z,-1.35
2023-03-04T01:49:57.984Z,-1.32
2023-03-04T01:50:57.667Z,-1.34
2023-03-04T01:51:57.280Z,-1.29
2023-03-04T01:52:57.275Z,-1.26
2023-03-04T01:53:57.294Z,-1.27
2023-03-04T01:54:57.598Z,-1.28
2023-03-04T01:56:00.385Z,-1.3
2023-03-04T01:56:57.993Z,-1.29
2023-03-04T01:57:57.445Z,-1.29
2023-03-04T02:01:05.053Z,-1.32
2023-03-04T02:02:05.102Z,-1.3
2023-03-04T02:03:06.977Z,-1.31
2023-03-04T02:04:05.684Z,-1.31
2023-03-04T02:05:05.406Z,-1.29
2023-03-04T02:06:05.474Z,-1.28
2023-03-04T02:07:05.629Z,-1.29
2023-03-04T02:08:05.668Z,-1.32
2023-03-04T02:09:05.748Z,-1.34
2023-03-04T02:10:05.783Z,-1.33
2023-03-04T02:11:05.529Z,-1.33
2023-03-04T02:12:05.724Z,-1.29
2023-03-04T02:13:05.398Z,-1.33
2023-03-04T02:14:05.862Z,-1.34
2023-03-04T02:15:05.844Z,-1.33
2023-03-04T02:16:05.334Z,-1.33
2023-03-04T02:17:10.045Z,-1.36
2023-03-04T02:18:17.007Z,-1.38
2023-03-04T02:22:17.087Z,-1.4
2023-03-04T02:25:25.766Z,-1.42
2023-03-04T02:26:32.499Z,-1.42
2023-03-04T02:27:24.265Z,-1.47
2023-03-04T02:28:24.225Z,-1.45
2023-03-04T02:29:24.251Z,-1.46
2023-03-04T02:30:24.585Z,-1.5
2023-03-04T02:31:26.232Z,-1.46
2023-03-04T02:32:24.342Z,-1.48
2023-03-04T02:33:24.272Z,-1.47
2023-03-04T02:34:27.452Z,-1.47
2023-03-04T02:35:24.352Z,-1.49
2023-03-04T02:36:24.343Z,-1.49
2023-03-04T02:37:24.515Z,-1.51
2023-03-04T02:38:24.496Z,-1.51
2023-03-04T02:39:34.615Z,-1.53
2023-03-04T02:40:29.483Z,-1.54
2023-03-04T02:41:28.936Z,-1.52
2023-03-04T02:42:26.456Z,-1.53
2023-03-04T02:43:26.438Z,-1.53
2023-03-04T02:44:33.191Z,-1.52
2023-03-04T02:46:31.585Z,-1.54
2023-03-04T02:47:31.528Z,-1.51
2023-03-04T02:48:31.761Z,-1.54
2023-03-04T02:49:32.904Z,-1.54
2023-03-04T02:50:34.210Z,-1.55
2023-03-04T02:51:32.056Z,-1.54
2023-03-04T02:52:32.108Z,-1.5
2023-03-04T02:53:32.231Z,-1.5
2023-03-04T02:54:32.403Z,-1.49
2023-03-04T02:55:32.316Z,-1.52
2023-03-04T02:56:32.140Z,-1.53
2023-03-04T02:57:32.222Z,-1.51
2023-03-04T02:58:32.180Z,-1.52
2023-03-04T02:59:32.356Z,-1.5
2023-03-04T03:00:32.193Z,-1.52
2023-03-04T03:01:32.300Z,-1.56
2023-03-04T03:02:32.266Z,-1.52
2023-03-04T03:03:32.399Z,-1.51
2023-03-04T03:04:32.518Z,-1.5
2023-03-04T03:05:33.805Z,-1.51
2023-03-04T03:06:32.313Z,-1.52
2023-03-04T03:07:32.324Z,-1.54
2023-03-04T03:08:32.324Z,-1.55
2023-03-04T03:09:32.349Z,-1.53
2023-03-04T03:10:32.496Z,-1.54
2023-03-04T03:11:32.432Z,-1.54
2023-03-04T03:12:32.437Z,-1.57
2023-03-04T03:13:32.419Z,-1.58
2023-03-04T03:14:32.448Z,-1.58
2023-03-04T03:15:32.467Z,-1.61
2023-03-04T03:16:32.539Z,-1.6
2023-03-04T03:17:32.514Z,-1.61
2023-03-04T03:18:32.527Z,-1.6
2023-03-04T03:19:32.536Z,-1.6
2023-03-04T03:20:32.525Z,-1.62
2023-03-04T03:21:32.556Z,-1.62
2023-03-04T03:22:32.584Z,-1.61
2023-03-04T03:23:32.593Z,-1.64
2023-03-04T03:24:32.584Z,-1.63
2023-03-04T03:25:32.617Z,-1.63
2023-03-04T03:26:32.622Z,-1.61
2023-03-04T03:27:32.666Z,-1.62
2023-03-04T03:28:32.658Z,-1.62
2023-03-04T03:29:32.688Z,-1.65
2023-03-04T03:30:32.710Z,-1.63
2023-03-04T03:31:32.751Z,-1.61
2023-03-04T03:32:32.737Z,-1.62
2023-03-04T03:33:33.182Z,-1.64
2023-03-04T03:34:32.737Z,-1.64
2023-03-04T03:35:32.802Z,-1.66
2023-03-04T03:36:32.860Z,-1.67
2023-03-04T03:37:32.880Z,-1.67
2023-03-04T03:38:33.914Z,-1.68
2023-03-04T03:39:32.848Z,-1.66
2023-03-04T03:40:33.039Z,-1.68
2023-03-04T03:41:32.905Z,-1.68
2023-03-04T03:42:32.935Z,-1.71
2023-03-04T03:43:32.905Z,-1.71
2023-03-04T03:44:32.984Z,-1.71
2023-03-04T03:45:33.076Z,-1.69
2023-03-04T03:46:33.026Z,-1.71
2023-03-04T03:47:33.064Z,-1.7
2023-03-04T03:48:32.994Z,-1.71
2023-03-04T03:49:33.066Z,-1.7
2023-03-04T03:50:33.015Z,-1.71
2023-03-04T03:51:33.041Z,-1.69
2023-03-04T03:52:33.053Z,-1.67
2023-03-04T03:53:33.059Z,-1.67
2023-03-04T03:54:33.115Z,-1.69
2023-03-04T03:55:33.153Z,-1.7
2023-03-04T03:56:33.122Z,-1.71
2023-03-04T03:57:33.131Z,-1.7
2023-03-04T03:58:33.171Z,-1.71
2023-03-04T03:59:33.224Z,-1.71
2023-03-04T04:00:33.244Z,-1.7
2023-03-04T04:01:33.233Z,-1.7
2023-03-04T04:02:33.364Z,-1.7
2023-03-04T04:03:33.259Z,-1.72
2023-03-04T04:04:33.278Z,-1.71
2023-03-04T04:05:33.413Z,-1.71
2023-03-04T04:06:33.330Z,-1.72
2023-03-04T04:07:33.340Z,-1.71
2023-03-04T04:08:33.330Z,-1.73
2023-03-04T04:09:33.323Z,-1.74
2023-03-04T04:10:33.359Z,-1.73
2023-03-04T04:11:33.336Z,-1.73
2023-03-04T04:12:33.543Z,-1.75
2023-03-04T04:13:33.348Z,-1.74
2023-03-04T04:14:33.600Z,-1.75
2023-03-04T04:15:33.408Z,-1.75
2023-03-04T04:16:33.562Z,-1.75
2023-03-04T04:17:33.417Z,-1.75
2023-03-04T04:18:33.465Z,-1.75
2023-03-04T04:19:33.432Z,-1.77
2023-03-04T04:20:33.958Z,-1.79
2023-03-04T04:21:33.671Z,-1.79
2023-03-04T04:22:33.517Z,-1.78
2023-03-04T04:23:33.500Z,-1.78
2023-03-04T04:24:33.827Z,-1.77
2023-03-04T04:25:33.657Z,-1.8
2023-03-04T04:26:33.555Z,-1.81
2023-03-04T04:27:33.559Z,-1.82
2023-03-04T04:28:33.603Z,-1.85
2023-03-04T04:29:33.588Z,-1.84
2023-03-04T04:30:33.645Z,-1.85
2023-03-04T04:31:33.718Z,-1.85
2023-03-04T04:32:33.910Z,-1.88
2023-03-04T04:33:33.621Z,-1.87
2023-03-04T04:34:33.646Z,-1.87
2023-03-04T04:35:35.293Z,-1.87
2023-03-04T04:36:33.739Z,-1.89
2023-03-04T04:37:33.793Z,-1.89
2023-03-04T04:38:33.705Z,-1.86
2023-03-04T04:39:33.709Z,-1.85
2023-03-04T04:40:33.714Z,-1.84
2023-03-04T04:41:38.051Z,-1.84
2023-03-04T04:42:34.272Z,-1.83
2023-03-04T04:43:34.266Z,-1.82
2023-03-04T04:44:34.323Z,-1.82
2023-03-04T04:45:34.482Z,-1.79
2023-03-04T04:46:34.670Z,-1.81
2023-03-04T04:47:34.362Z,-1.8
2023-03-04T04:48:34.346Z,-1.82
2023-03-04T04:49:34.338Z,-1.8
2023-03-04T04:50:34.384Z,-1.81
2023-03-04T04:51:35.034Z,-1.8
2023-03-04T04:52:34.385Z,-1.81
2023-03-04T04:53:34.677Z,-1.81
2023-03-04T04:54:34.425Z,-1.84
2023-03-04T04:55:34.559Z,-1.84
2023-03-04T04:56:34.542Z,-1.84
2023-03-04T04:57:34.579Z,-1.84
2023-03-04T04:58:34.486Z,-1.84
2023-03-04T04:59:34.551Z,-1.85
2023-03-04T05:00:34.598Z,-1.86
2023-03-04T05:01:34.967Z,-1.86
2023-03-04T05:02:34.509Z,-1.88
2023-03-04T05:03:35.250Z,-1.88
2023-03-04T05:04:34.601Z,-1.88
2023-03-04T05:05:34.647Z,-1.89
2023-03-04T05:06:34.599Z,-1.88
2023-03-04T05:07:34.573Z,-1.89
2023-03-04T05:08:34.789Z,-1.88
2023-03-04T05:09:34.640Z,-1.87
2023-03-04T05:10:34.609Z,-1.91
2023-03-04T05:11:34.746Z,-1.91
2023-03-04T05:12:34.647Z,-1.91
2023-03-04T05:13:34.793Z,-1.9
2023-03-04T05:14:34.712Z,-1.91
2023-03-04T05:15:34.741Z,-1.92
2023-03-04T05:16:34.700Z,-1.93
2023-03-04T05:17:34.710Z,-1.96
2023-03-04T05:18:34.744Z,-2.01
2023-03-04T05:19:34.747Z,-2.04
2023-03-04T05:20:34.736Z,-2.07
2023-03-04T05:21:35.133Z,-2.07
2023-03-04T05:22:34.810Z,-2.08
2023-03-04T05:23:36.260Z,-2.07
2023-03-04T05:24:34.843Z,-2.07
2023-03-04T05:25:34.803Z,-2.11
2023-03-04T05:26:35.079Z,-2.11
2023-03-04T05:27:34.850Z,-2.11
2023-03-04T05:28:35.377Z,-2.1
2023-03-04T05:29:34.864Z,-2.11
2023-03-04T05:30:34.896Z,-2.11
2023-03-04T05:31:34.975Z,-2.11
2023-03-04T05:32:34.987Z,-2.12
2023-03-04T05:33:34.917Z,-2.12
2023-03-04T05:34:34.943Z,-2.1
2023-03-04T05:35:38.253Z,-2.11
2023-03-04T05:36:34.963Z,-2.12
2023-03-04T05:37:34.998Z,-2.13
2023-03-04T05:38:35.277Z,-2.14
2023-03-04T05:39:35.079Z,-2.14
2023-03-04T05:40:35.277Z,-2.15
2023-03-04T05:41:35.049Z,-2.15
2023-03-04T05:42:35.057Z,-2.16
2023-03-04T05:43:35.436Z,-2.17
2023-03-04T05:44:35.101Z,-2.18
2023-03-04T05:45:35.377Z,-2.17
2023-03-04T05:46:35.168Z,-2.21
2023-03-04T05:47:35.122Z,-2.21
2023-03-04T05:48:35.143Z,-2.2
2023-03-04T05:49:35.137Z,-2.22
2023-03-04T05:50:35.677Z,-2.22
2023-03-04T05:51:35.190Z,-2.22
2023-03-04T05:52:35.184Z,-2.21
2023-03-04T05:53:35.673Z,-2.2
2023-03-04T05:54:35.177Z,-2.2
2023-03-04T05:55:35.207Z,-2.19
2023-03-04T05:56:35.257Z,-2.2
2023-03-04T05:57:35.236Z,-2.2
2023-03-04T05:58:35.236Z,-2.2
2023-03-04T05:59:35.263Z,-2.21
2023-03-04T06:00:35.243Z,-2.23
2023-03-04T06:01:35.304Z,-2.23
2023-03-04T06:02:36.229Z,-2.24
2023-03-04T06:03:35.416Z,-2.23
2023-03-04T06:04:35.349Z,-2.22
2023-03-04T06:05:35.488Z,-2.22
2023-03-04T06:06:35.354Z,-2.2
2023-03-04T06:07:35.397Z,-2.2
2023-03-04T06:08:35.395Z,-2.19
2023-03-04T06:09:35.394Z,-2.19
2023-03-04T06:10:35.411Z,-2.18
2023-03-04T06:11:36.486Z,-2.16
2023-03-04T06:12:35.716Z,-2.16
2023-03-04T06:13:35.621Z,-2.16
2023-03-04T06:14:35.458Z,-2.15
2023-03-04T06:15:35.470Z,-2.14
2023-03-04T06:16:35.482Z,-2.12
2023-03-04T06:17:35.929Z,-2.12
2023-03-04T06:18:35.505Z,-2.11
2023-03-04T06:19:35.529Z,-2.09
2023-03-04T06:20:35.530Z,-2.09
2023-03-04T06:21:35.549Z,-2.1
2023-03-04T06:22:35.580Z,-2.1
2023-03-04T06:23:35.602Z,-2.09
2023-03-04T06:24:35.781Z,-2.1
2023-03-04T06:25:35.590Z,-2.07
2023-03-04T06:26:35.582Z,-2.07
2023-03-04T06:27:35.805Z,-2.09
2023-03-04T06:28:35.659Z,-2.09
2023-03-04T06:29:35.682Z,-2.07
2023-03-04T06:30:35.645Z,-2.08
2023-03-04T06:31:35.695Z,-2.07
2023-03-04T06:32:35.712Z,-2.09
2023-03-04T06:33:35.941Z,-2.05
2023-03-04T06:34:35.741Z,-2.05
2023-03-04T06:35:35.778Z,-2.04
2023-03-04T06:36:35.741Z,-2.04
2023-03-04T06:37:35.742Z,-2.03
2023-03-04T06:38:35.751Z,-2.05
2023-03-04T06:39:35.886Z,-2.05
2023-03-04T06:40:35.804Z,-2.07
2023-03-04T06:41:36.003Z,-2.09
2023-03-04T06:42:36.204Z,-2.04
2023-03-04T06:43:36.113Z,-2.08
2023-03-04T06:44:35.862Z,-2.1
2023-03-04T06:45:35.861Z,-2.11
2023-03-04T06:46:36.167Z,-2.12
2023-03-04T06:47:35.872Z,-2.1
2023-03-04T06:48:35.915Z,-2.11
2023-03-04T06:49:35.921Z,-2.12
2023-03-04T06:50:35.946Z,-2.13
2023-03-04T06:51:36.029Z,-2.16
2023-03-04T06:52:35.907Z,-2.14
2023-03-04T06:53:36.374Z,-2.12
2023-03-04T06:54:35.971Z,-2.12
2023-03-04T06:55:35.986Z,-2.14
2023-03-04T06:56:35.997Z,-2.12
2023-03-04T06:57:36.286Z,-2.12
2023-03-04T06:58:36.448Z,-2.15
2023-03-04T06:59:36.041Z,-2.13
2023-03-04T07:00:36.141Z,-2.15
2023-03-04T07:01:36.046Z,-2.16
2023-03-04T07:02:36.047Z,-2.16
2023-03-04T07:03:36.068Z,-2.16
2023-03-04T07:04:36.122Z,-2.16
2023-03-04T07:05:36.171Z,-2.13
2023-03-04T07:06:36.109Z,-2.13
2023-03-04T07:07:36.274Z,-2.16
2023-03-04T07:08:36.361Z,-2.16
2023-03-04T07:09:36.200Z,-2.16
2023-03-04T07:10:36.165Z,-2.16
2023-03-04T07:11:36.164Z,-2.15
2023-03-04T07:12:36.415Z,-2.15
2023-03-04T07:13:36.452Z,-2.14
2023-03-04T07:14:36.225Z,-2.13
2023-03-04T07:15:37.258Z,-2.16
2023-03-04T07:16:36.532Z,-2.14
2023-03-04T07:17:36.257Z,-2.14
2023-03-04T07:18:36.789Z,-2.12
2023-03-04T07:19:36.293Z,-2.1
2023-03-04T07:20:36.461Z,-2.08
2023-03-04T07:21:36.296Z,-2.07
2023-03-04T07:22:36.298Z,-2.07
2023-03-04T07:23:36.977Z,-2.08
2023-03-04T07:24:36.334Z,-2.1
2023-03-04T07:25:36.331Z,-2.12
2023-03-04T07:26:36.349Z,-2.1
2023-03-04T07:27:36.367Z,-2.12
2023-03-04T07:28:36.640Z,-2.12
2023-03-04T07:29:36.411Z,-2.12
2023-03-04T07:30:36.541Z,-2.1
2023-03-04T07:31:36.640Z,-2.1
2023-03-04T07:32:36.497Z,-2.09
2023-03-04T07:33:36.431Z,-2.08
2023-03-04T07:34:36.501Z,-2.05
2023-03-04T07:35:36.604Z,-2.04
2023-03-04T07:36:36.581Z,-2.04
2023-03-04T07:37:36.480Z,-2.01
2023-03-04T07:38:36.698Z,-2
2023-03-04T07:39:36.509Z,-2.03
2023-03-04T07:40:37.073Z,-2.01
2023-03-04T07:41:36.755Z,-2
2023-03-04T07:42:36.565Z,-2
2023-03-04T07:43:36.569Z,-1.97
2023-03-04T07:44:36.569Z,-1.92
2023-03-04T07:45:36.738Z,-1.92
2023-03-04T07:46:36.623Z,-1.92
2023-03-04T07:47:36.591Z,-1.96
2023-03-04T07:48:36.898Z,-1.96
2023-03-04T07:49:36.653Z,-2
2023-03-04T07:50:36.657Z,-2.02
2023-03-04T07:51:36.671Z,-2.05
2023-03-04T07:52:40.447Z,-2.07
2023-03-04T07:53:37.506Z,-2.04
2023-03-04T07:54:36.842Z,-2.06
2023-03-04T07:55:36.703Z,-2.05
2023-03-04T07:56:36.850Z,-2.05
2023-03-04T07:57:40.489Z,-2.06
2023-03-04T07:58:36.802Z,-2.1
2023-03-04T07:59:36.749Z,-2.12
2023-03-04T08:00:36.819Z,-2.15
2023-03-04T08:01:37.654Z,-2.15
2023-03-04T08:02:36.920Z,-2.16
2023-03-04T08:03:36.828Z,-2.15
2023-03-04T08:04:37.064Z,-2.1
2023-03-04T08:05:39.110Z,-2.09
2023-03-04T08:06:36.903Z,-2.16
2023-03-04T08:07:36.906Z,-2.15
2023-03-04T08:08:37.177Z,-2.16
2023-03-04T08:09:36.901Z,-2.16
2023-03-04T08:10:36.986Z,-2.17
2023-03-04T08:11:37.544Z,-2.18
2023-03-04T08:12:37.039Z,-2.19
2023-03-04T08:13:37.107Z,-2.21
2023-03-04T08:14:36.982Z,-2.17
2023-03-04T08:15:40.017Z,-2.21
2023-03-04T08:16:37.798Z,-2.2
2023-03-04T08:17:37.674Z,-2.19
2023-03-04T08:18:37.015Z,-2.16
2023-03-04T08:19:37.028Z,-2.16
2023-03-04T08:20:37.066Z,-2.14
2023-03-04T08:21:37.057Z,-2.12
2023-03-04T08:22:37.075Z,-2.12
2023-03-04T08:23:37.215Z,-2.16
2023-03-04T08:24:37.138Z,-2.2
2023-03-04T08:25:40.408Z,-2.22
2023-03-04T08:26:40.885Z,-2.24
2023-03-04T08:27:37.329Z,-2.22
2023-03-04T08:28:37.978Z,-2.27
2023-03-04T08:29:37.436Z,-2.28
2023-03-04T08:30:37.356Z,-2.28
2023-03-04T08:31:37.526Z,-2.27
2023-03-04T08:32:37.598Z,-2.32
2023-03-04T08:33:37.406Z,-2.31
2023-03-04T08:34:39.149Z,-2.31
2023-03-04T08:35:38.656Z,-2.32
2023-03-04T08:36:37.465Z,-2.33
2023-03-04T08:37:37.465Z,-2.32
2023-03-04T08:38:37.545Z,-2.34
2023-03-04T08:39:37.498Z,-2.33
2023-03-04T08:40:37.522Z,-2.34
2023-03-04T08:41:37.618Z,-2.33
2023-03-04T08:42:37.522Z,-2.32
2023-03-04T08:43:37.544Z,-2.3
2023-03-04T08:44:37.576Z,-2.29
2023-03-04T08:45:37.559Z,-2.27
2023-03-04T08:46:38.080Z,-2.24
2023-03-04T08:47:38.103Z,-2.22
2023-03-04T08:48:37.857Z,-2.19
2023-03-04T08:49:38.102Z,-2.18
2023-03-04T08:50:37.649Z,-2.16
2023-03-04T08:51:37.692Z,-2.13
2023-03-04T08:52:37.740Z,-2.11
2023-03-04T08:53:37.913Z,-2.12
2023-03-04T08:54:37.753Z,-2.09
2023-03-04T08:55:38.949Z,-2.05
2023-03-04T08:56:38.187Z,-2.04
2023-03-04T08:57:37.814Z,-2.02
2023-03-04T08:58:37.784Z,-2
2023-03-04T08:59:38.514Z,-2
2023-03-04T09:00:38.988Z,-1.93
2023-03-04T09:01:37.949Z,-1.92
2023-03-04T09:02:37.894Z,-1.93
2023-03-04T09:03:38.340Z,-2
2023-03-04T09:04:37.876Z,-1.97
2023-03-04T09:05:38.012Z,-1.94
2023-03-04T09:06:37.959Z,-1.88
2023-03-04T09:07:38.003Z,-1.89
2023-03-04T09:08:37.967Z,-1.91
2023-03-04T09:09:37.970Z,-1.86
2023-03-04T09:10:38.024Z,-1.91
2023-03-04T09:11:38.026Z,-1.89
2023-03-04T09:12:38.042Z,-1.88
2023-03-04T09:13:38.357Z,-1.87
2023-03-04T09:14:38.032Z,-1.85
2023-03-04T09:15:38.595Z,-1.88
2023-03-04T09:16:38.046Z,-1.93
2023-03-04T09:17:39.015Z,-1.92
2023-03-04T09:18:38.179Z,-1.92
2023-03-04T09:19:38.233Z,-1.88
2023-03-04T09:20:38.116Z,-1.87
2023-03-04T09:21:38.167Z,-1.89
2023-03-04T09:22:38.874Z,-1.9
2023-03-04T09:23:38.550Z,-1.9
2023-03-04T09:24:38.174Z,-1.89
2023-03-04T09:25:38.404Z,-1.87
2023-03-04T09:26:38.207Z,-1.91
2023-03-04T09:27:38.230Z,-1.94
2023-03-04T09:28:38.268Z,-1.93
2023-03-04T09:29:38.263Z,-1.86
2023-03-04T09:30:38.347Z,-1.91
2023-03-04T09:31:38.347Z,-1.93
2023-03-04T09:32:38.822Z,-1.94
2023-03-04T09:33:38.418Z,-1.92
2023-03-04T09:34:38.410Z,-1.94
2023-03-04T09:35:38.431Z,-1.97
2023-03-04T09:36:38.504Z,-1.92
2023-03-04T09:37:41.211Z,-1.9
2023-03-04T09:38:38.828Z,-1.93
2023-03-04T09:39:38.434Z,-1.96
2023-03-04T09:40:42.856Z,-1.94
2023-03-04T09:43:44.958Z,-1.95
2023-03-04T09:44:46.165Z,-1.98
2023-03-04T09:45:47.235Z,-1.98
2023-03-04T09:46:45.170Z,-1.97
2023-03-04T09:47:44.706Z,-1.97
2023-03-04T09:48:46.681Z,-2
2023-03-04T09:49:48.317Z,-1.97
2023-03-04T09:52:58.190Z,-1.98
2023-03-04T09:55:59.490Z,-1.95
2023-03-04T09:57:06.501Z,-1.92
2023-03-04T10:02:23.454Z,-1.85
2023-03-04T10:03:17.550Z,-1.82
2023-03-04T10:05:20.707Z,-1.75
2023-03-04T10:06:20.483Z,-1.68
2023-03-04T10:07:22.666Z,-1.61
2023-03-04T10:09:26.852Z,-1.59
2023-03-04T10:10:36.360Z,-1.51
2023-03-04T10:12:32.807Z,-1.44
2023-03-04T10:13:34.997Z,-1.45
2023-03-04T10:14:44.889Z,-1.49
2023-03-04T10:15:39.769Z,-1.5
2023-03-04T10:16:42.558Z,-1.44
2023-03-04T10:17:45.545Z,-1.46
2023-03-04T10:18:45.778Z,-1.49
2023-03-04T10:19:54.673Z,-1.42
2023-03-04T10:21:49.787Z,-1.37
2023-03-04T10:22:49.258Z,-1.34
2023-03-04T10:23:49.154Z,-1.27
2023-03-04T10:24:48.650Z,-1.29
2023-03-04T10:25:49.379Z,-1.42
2023-03-04T10:26:51.319Z,-1.39
2023-03-04T10:28:52.482Z,-1.42
2023-03-04T10:29:52.471Z,-1.37
2023-03-04T10:31:57.637Z,-1.44
2023-03-04T10:32:57.824Z,-1.39
2023-03-04T10:33:57.601Z,-1.35
2023-03-04T10:34:57.544Z,-1.33
2023-03-04T10:36:05.473Z,-1.36
2023-03-04T10:37:04.697Z,-1.36
2023-03-04T10:38:03.632Z,-1.31
2023-03-04T10:39:12.504Z,-1.34
2023-03-04T10:40:04.599Z,-1.3
2023-03-04T10:41:17.432Z,-1.36
2023-03-04T10:43:18.470Z,-1.24
2023-03-04T10:44:17.721Z,-1.28
2023-03-04T10:46:16.557Z,-1.29
2023-03-04T10:47:16.930Z,-1.33
2023-03-04T10:48:24.387Z,-1.32
2023-03-04T10:49:20.596Z,-1.32
2023-03-04T10:50:24.938Z,-1.35
2023-03-04T10:51:23.233Z,-1.42
2023-03-04T10:52:28.779Z,-1.45
2023-03-04T10:53:33.100Z,-1.47
2023-03-04T10:56:35.459Z,-1.48
2023-03-04T10:57:38.217Z,-1.42
2023-03-04T10:58:34.493Z,-1.44
2023-03-04T11:00:37.247Z,-1.44
2023-03-04T11:01:37.231Z,-1.5
2023-03-04T11:02:36.837Z,-1.46
2023-03-04T11:03:37.008Z,-1.38
2023-03-04T11:04:36.798Z,-1.27
2023-03-04T11:05:36.782Z,-1.24
2023-03-04T11:06:40.641Z,-1.33
2023-03-04T11:07:54.058Z,-1.29
2023-03-04T11:08:42.166Z,-1.3
2023-03-04T11:09:44.079Z,-1.33
2023-03-04T11:10:42.495Z,-1.35
2023-03-04T11:11:42.925Z,-1.38
2023-03-04T11:12:47.718Z,-1.39
2023-03-04T11:13:58.552Z,-1.4
2023-03-04T11:14:49.384Z,-1.45
2023-03-04T11:15:58.451Z,-1.45
2023-03-04T11:16:54.717Z,-1.43
2023-03-04T11:17:53.399Z,-1.48
2023-03-04T11:18:53.310Z,-1.52
2023-03-04T11:19:57.066Z,-1.54
2023-03-04T11:20:54.042Z,-1.54
2023-03-04T11:21:54.973Z,-1.55
2023-03-04T11:22:55.794Z,-1.54
2023-03-04T11:28:04.613Z,-1.61
2023-03-04T11:31:10.547Z,-1.59
2023-03-04T11:32:13.377Z,-1.57
2023-03-04T11:33:14.272Z,-1.45
2023-03-04T11:38:18.041Z,-1.34
2023-03-04T11:39:22.125Z,-1.26
2023-03-04T11:40:24.082Z,-1.21
2023-03-04T11:41:24.985Z,-1.29
2023-03-04T11:43:28.495Z,-1.31
2023-03-04T11:44:25.196Z,-1.27
2023-03-04T11:45:36.919Z,-1.16
2023-03-04T11:47:38.076Z,-1.1
2023-03-04T11:53:51.305Z,-1.06
2023-03-04T12:01:09.358Z,-1.03
2023-03-04T12:05:26.012Z,-1.07
2023-03-04T12:06:24.549Z,-1.07
2023-03-04T12:14:44.166Z,-0.82
2023-03-04T12:16:53.334Z,-0.71
2023-03-04T12:20:08.488Z,-0.45
2023-03-04T12:26:24.394Z,-0.11
2023-03-04T12:31:42.701Z,-0.59
2023-03-04T12:35:52.115Z,-0.89
2023-03-04T12:38:03.513Z,-0.96
2023-03-04T12:45:27.823Z,-1.28
2023-03-04T12:51:36.272Z,-1.43
2023-03-04T12:53:46.808Z,-1.35
2023-03-04T12:54:43.327Z,-1.33
2023-03-04T12:55:41.931Z,-1.37
2023-03-04T12:57:41.636Z,-1.46
2023-03-04T12:58:41.512Z,-1.44
2023-03-04T12:59:45.399Z,-1.4
2023-03-04T13:12:17.219Z,-0.81
2023-03-04T13:20:33.571Z,-0.42
2023-03-04T13:21:31.471Z,-0.32
2023-03-04T13:23:32.479Z,-0.03
2023-03-04T13:25:36.373Z,0.02
2023-03-04T13:26:34.264Z,0.11
2023-03-04T13:27:46.522Z,0.1
2023-03-04T13:28:35.724Z,0.18
2023-03-04T13:29:33.970Z,0.21
2023-03-04T13:30:43.936Z,0.02
2023-03-04T13:32:38.481Z,-0.19
2023-03-04T13:34:47.410Z,-0.44
2023-03-04T13:35:51.430Z,-0.51
2023-03-04T13:36:56.627Z,-0.49
2023-03-04T13:37:57.522Z,-0.61
2023-03-04T13:38:57.568Z,-0.67
2023-03-04T13:41:54.995Z,-0.59
2023-03-04T13:42:54.697Z,-0.57
2023-03-04T13:44:57.705Z,-0.38
2023-03-04T13:45:55.867Z,-0.39
2023-03-04T13:46:55.916Z,-0.3
2023-03-04T13:47:55.925Z,-0.31
2023-03-04T13:51:03.314Z,-0.2
2023-03-04T13:56:22.661Z,-0.12
2023-03-04T13:57:20.427Z,-0.19
2023-03-04T13:58:25.237Z,-0.24
2023-03-04T13:59:30.048Z,-0.25
2023-03-04T14:00:28.489Z,-0.37
2023-03-04T14:01:31.924Z,-0.37
2023-03-04T14:02:33.943Z,-0.42
2023-03-04T14:03:31.579Z,-0.45
2023-03-04T14:04:34.460Z,-0.49
2023-03-04T14:05:31.145Z,-0.55
2023-03-04T14:06:31.424Z,-0.55
2023-03-04T14:07:35.633Z,-0.62
2023-03-04T14:08:32.485Z,-0.67
2023-03-04T14:09:33.702Z,-0.66
2023-03-04T14:10:32.441Z,-0.77
2023-03-04T14:11:39.231Z,-0.89
2023-03-04T14:12:37.323Z,-0.95
2023-03-04T14:13:37.345Z,-1.06
2023-03-04T14:14:48.478Z,-1.17
2023-03-04T14:15:40.138Z,-1.14
2023-03-04T14:16:44.995Z,-1.2
2023-03-04T14:17:45.558Z,-1.25
2023-03-04T14:18:42.264Z,-1.27
2023-03-04T14:19:46.081Z,-1.23
2023-03-04T14:20:49.260Z,-1.25
2023-03-04T14:21:47.076Z,-1.25
2023-03-04T14:22:45.948Z,-1.14
2023-03-04T14:23:45.983Z,-1.13
2023-03-04T14:25:46.824Z,-1.12
2023-03-04T14:26:47.256Z,-1.14
2023-03-04T14:27:46.941Z,-1.14
2023-03-04T14:28:48.209Z,-1.15
2023-03-04T14:29:54.413Z,-1.18
2023-03-04T14:30:52.207Z,-1.18
2023-03-04T14:31:51.820Z,-1.22
2023-03-04T14:32:54.974Z,-1.22
2023-03-04T14:33:53.428Z,-1.24
2023-03-04T14:34:54.558Z,-1.24
2023-03-04T14:35:53.492Z,-1.22
2023-03-04T14:36:52.096Z,-1.21
2023-03-04T14:38:54.193Z,-1.2
2023-03-04T14:39:56.078Z,-1.22
2023-03-04T14:41:55.730Z,-1.23
2023-03-04T14:43:00.032Z,-1.22
2023-03-04T14:44:02.394Z,-1.21
2023-03-04T14:45:00.328Z,-1.2
2023-03-04T14:46:00.424Z,-1.17
2023-03-04T14:47:07.820Z,-1.19
2023-03-04T14:48:04.664Z,-1.22
2023-03-04T14:49:02.142Z,-1.21
2023-03-04T14:50:03.597Z,-1.2
2023-03-04T14:51:02.031Z,-1.13
2023-03-04T14:52:01.532Z,-1.22
2023-03-04T14:53:14.768Z,-1.25
2023-03-04T14:54:01.439Z,-1.23
2023-03-04T14:56:06.566Z,-1.22
2023-03-04T14:58:08.240Z,-1.32
2023-03-04T14:59:04.438Z,-1.3
2023-03-04T15:01:14.022Z,-1.25
2023-03-04T15:04:09.679Z,-1.31
2023-03-04T15:05:17.781Z,-1.31
2023-03-04T15:06:16.353Z,-1.34
2023-03-04T15:07:18.115Z,-1.33
2023-03-04T15:08:25.459Z,-1.34
2023-03-04T15:09:25.089Z,-1.4
2023-03-04T15:10:26.320Z,-1.36
2023-03-04T15:11:24.753Z,-1.37
2023-03-04T15:12:24.709Z,-1.46
2023-03-04T15:17:37.908Z,-1.35
2023-03-04T15:18:34.380Z,-1.41
2023-03-04T15:19:34.255Z,-1.38
2023-03-04T15:20:34.276Z,-1.36